Home > Products > Valid Products > TAF

000
FTUS44 KEPZ 250500
TAFTCS
TAF
KTCS 250522Z 2506/2606 27008KT P6SM SCT250
     FM251700 21018G25KT P6SM FEW060 SCT200=



000
FTUS44 KEPZ 250500
TAFDMN
TAF
KDMN 250522Z 2506/2606 28008KT P6SM SKC
     FM251600 25017G25KT P6SM FEW150 SCT250=



000
FTUS44 KEPZ 250500
TAFELP
TAF
KELP 250522Z 2506/2606 26014G22KT P6SM SKC
     FM250900 24010KT P6SM SKC
     FM251600 24020G25KT P6SM FEW250=



000
FTUS44 KEPZ 250500
TAFDMN
TAF
KDMN 250522Z 2506/2606 28008KT P6SM SKC
     FM251600 25017G25KT P6SM FEW150 SCT250=



000
FTUS44 KEPZ 250500
TAFELP
TAF
KELP 250522Z 2506/2606 26014G22KT P6SM SKC
     FM250900 24010KT P6SM SKC
     FM251600 24020G25KT P6SM FEW250=



000
FTUS44 KEPZ 250500
TAFTCS
TAF
KTCS 250522Z 2506/2606 27008KT P6SM SCT250
     FM251700 21018G25KT P6SM FEW060 SCT200=



000
FTUS44 KEPZ 242300
TAFELP
TAF
KELP 242327Z 2500/2524 26023G30KT P6SM SCT080
     FM250400 26015G25KT P6SM SKC
     FM250800 24010KT P6SM SKC
     FM251600 25014G20KT P6SM FEW250=



000
FTUS44 KEPZ 242300
TAFTCS
TAF
KTCS 242327Z 2500/2524 26020G25KT P6SM SCT090
     FM250300 27010KT P6SM SCT250
     FM251700 21010G15KT P6SM FEW060 SCT200=



000
FTUS44 KEPZ 242300
TAFDMN
TAF
KDMN 242327Z 2500/2524 26022G30KT P6SM BKN070
     FM250300 28008KT P6SM SKC
     FM251600 25010G17KT P6SM FEW150 SCT250=



000
FTUS44 KEPZ 242300
TAFDMN
TAF
KDMN 242327Z 2500/2524 26022G30KT P6SM BKN070
     FM250300 28008KT P6SM SKC
     FM251600 25010G17KT P6SM FEW150 SCT250=



000
FTUS44 KEPZ 242300
TAFELP
TAF
KELP 242327Z 2500/2524 26023G30KT P6SM SCT080
     FM250400 26015G25KT P6SM SKC
     FM250800 24010KT P6SM SKC
     FM251600 25014G20KT P6SM FEW250=



000
FTUS44 KEPZ 242300
TAFTCS
TAF
KTCS 242327Z 2500/2524 26020G25KT P6SM SCT090
     FM250300 27010KT P6SM SCT250
     FM251700 21010G15KT P6SM FEW060 SCT200=



000
FTUS44 KEPZ 241700 RRA
TAFELP
TAF
KELP 241742Z 2418/2518 26023G33KT P6SM SCT080
     FM250400 26015G25KT P6SM SKC
     FM250800 27010KT P6SM SKC
     FM251500 26013G23KT P6SM FEW250=



000
FTUS44 KEPZ 241700 RRA
TAFTCS
TAF
KTCS 241742Z 2418/2518 27012KT P6SM SCT070 SCT200
     FM242000 26023G33KT P6SM SCT090
     FM250300 27006KT P6SM SCT250
     FM251600 21010KT P6SM FEW060 SCT200=



000
FTUS44 KEPZ 241700 RRA
TAFDMN
TAF
KDMN 241742Z 2418/2518 26024G34KT P6SM BKN070
     FM250300 28008KT P6SM SKC
     FM251600 25013G23KT P6SM FEW150 SCT250=



000
FTUS44 KEPZ 241600 AAA
TAFTCS
TAF AMD
KTCS 241611Z 2416/2512 30020G30KT P6SM FEW080 BKN250
     FM241800 26018G28KT P6SM SCT080 SCT200
     FM250300 29007KT P6SM SCT250=



000
FTUS44 KEPZ 241600 AAA
TAFTCS
TAF AMD
KTCS 241611Z 2416/2512 30020G30KT P6SM FEW080 BKN250
     FM241800 26018G28KT P6SM SCT080 SCT200
     FM250300 29007KT P6SM SCT250=



000
FTUS44 KEPZ 241400 AAB
TAFELP
TAF AMD
KELP 241456Z 2415/2512 26022G32KT P6SM SCT080 SCT250
     FM250400 23011KT P6SM FEW250=



000
FTUS44 KEPZ 241300 AAA
TAFELP
TAF AMD
KELP 241319Z 2413/2512 36010KT P6SM FEW030 BKN060 OVC090
     FM241600 26022G32KT P6SM SCT080 SCT250
     FM250400 23011KT P6SM FEW250=



000
FTUS44 KEPZ 241100
TAFELP
TAF
KELP 241135Z 2412/2512 26021G31KT 5SM -SHRA BKN060 OVC090
     FM241400 26022G32KT P6SM BKN080 OVC100
     FM241800 25023G32KT P6SM FEW070 BKN250
     FM250400 23011KT P6SM FEW250=



000
FTUS44 KEPZ 241100
TAFDMN
TAF
KDMN 241135Z 2412/2512 24007KT P6SM SCT070 BKN100
     FM241500 26020G30KT P6SM FEW080 SCT250
     FM250300 29007KT P6SM SCT250=



000
FTUS44 KEPZ 241100
TAFDMN
TAF
KDMN 241135Z 2412/2512 24007KT P6SM SCT070 BKN100
     FM241500 26020G30KT P6SM FEW080 SCT250
     FM250300 29007KT P6SM SCT250=



000
FTUS44 KEPZ 241100
TAFTCS
TAF
KTCS 241135Z 2412/2512 29008KT P6SM FEW070 BKN100
     FM241500 21020G30KT P6SM FEW080 BKN250
     FM250300 29007KT P6SM SCT250=



000
FTUS44 KEPZ 241100
TAFELP
TAF
KELP 241135Z 2412/2512 26021G31KT 5SM -SHRA BKN060 OVC090
     FM241400 26022G32KT P6SM BKN080 OVC100
     FM241800 25023G32KT P6SM FEW070 BKN250
     FM250400 23011KT P6SM FEW250=



000
FTUS44 KEPZ 241100
TAFTCS
TAF
KTCS 241135Z 2412/2512 29008KT P6SM FEW070 BKN100
     FM241500 21020G30KT P6SM FEW080 BKN250
     FM250300 29007KT P6SM SCT250=



000
FTUS44 KEPZ 241000 AAA
TAFELP
TAF AMD
KELP 241046Z 2411/2506 25012KT 5SM -SHRA FEW050 BKN080 BKN250
     FM241500 24023G32KT P6SM FEW070 BKN250
     FM250400 23008KT P6SM FEW250=



000
FTUS44 KEPZ 240500 RRA
TAFTCS
TAF
KTCS 240547Z 2406/2506 23012G22KT P6SM BKN120
     FM240900 29008KT P6SM FEW120 BKN250
     FM241500 21020G30KT P6SM FEW080 BKN250
     FM250300 29007KT P6SM SCT250=



000
FTUS44 KEPZ 240500 RRA
TAFDMN
TAF
KDMN 240547Z 2406/2506 24007KT P6SM SCT120
     FM241500 26020G30KT P6SM FEW080 SCT250
     FM250300 29007KT P6SM SCT250=



000
FTUS44 KEPZ 240500 RRA
TAFELP
TAF
KELP 240547Z 2406/2506 23020G25KT P6SM SCT090 BKN250
     FM240900 25012KT P6SM FEW050 BKN250
     FM241500 24023G32KT P6SM FEW070 BKN250
     FM250400 23008KT P6SM FEW250=



000
FTUS44 KEPZ 240500 RRA
TAFTCS
TAF
KTCS 240547Z 2406/2506 23012G22KT P6SM BKN120
     FM240900 29008KT P6SM FEW120 BKN250
     FM241500 21020G30KT P6SM FEW080 BKN250
     FM250300 29007KT P6SM SCT250=



000
FTUS44 KEPZ 240500 RRA
TAFDMN
TAF
KDMN 240547Z 2406/2506 24007KT P6SM SCT120
     FM241500 26020G30KT P6SM FEW080 SCT250
     FM250300 29007KT P6SM SCT250=



000
FTUS44 KEPZ 240500 RRA
TAFELP
TAF
KELP 240547Z 2406/2506 23020G25KT P6SM SCT090 BKN250
     FM240900 25012KT P6SM FEW050 BKN250
     FM241500 24023G32KT P6SM FEW070 BKN250
     FM250400 23008KT P6SM FEW250=



000
FTUS44 KEPZ 232300 RRA
TAFELP
TAF
KELP 232346Z 2400/2418 23025G30KT P6SM SCT090 BKN250
     FM240900 27011KT P6SM FEW050
     FM241300 24020G25KT P6SM FEW070=



000
FTUS44 KEPZ 232300 RRA
TAFDMN
TAF
KDMN 232346Z 2400/2418 25018G28KT P6SM BKN100
     FM240700 23008KT P6SM SCT150
     FM241500 26014G24KT P6SM FEW080=



000
FTUS44 KEPZ 232300 RRA
TAFTCS
TAF
KTCS 232346Z 2400/2418 23017G23KT P6SM VCTS SCT100CB SCT250
     FM240400 23010KT P6SM SCT150
     FM241500 21012G17KT P6SM FEW080=



000
FTUS44 KEPZ 232300 RRA
TAFDMN
TAF
KDMN 232346Z 2400/2418 25018G28KT P6SM BKN100
     FM240700 23008KT P6SM SCT150
     FM241500 26014G24KT P6SM FEW080=



000
FTUS44 KEPZ 232300 RRA
TAFELP
TAF
KELP 232346Z 2400/2418 23025G30KT P6SM SCT090 BKN250
     FM240900 27011KT P6SM FEW050
     FM241300 24020G25KT P6SM FEW070=



000
FTUS44 KEPZ 232300 RRA
TAFTCS
TAF
KTCS 232346Z 2400/2418 23017G23KT P6SM VCTS SCT100CB SCT250
     FM240400 23010KT P6SM SCT150
     FM241500 21012G17KT P6SM FEW080=



000
FTUS44 KEPZ 231800 AAA
TAFTCS
TAF AMD
KTCS 231817Z 2318/2418 22017G27KT P6SM BKN100
     FM240000 24015G25KT P6SM VCTS SCT100CB SCT250
     FM240400 25008KT P6SM SCT150
     FM241600 21010KT P6SM FEW080=



000
FTUS44 KEPZ 231800 AAA
TAFTCS
TAF AMD
KTCS 231817Z 2318/2418 22017G27KT P6SM BKN100
     FM240000 24015G25KT P6SM VCTS SCT100CB SCT250
     FM240400 25008KT P6SM SCT150
     FM241600 21010KT P6SM FEW080=



000
FTUS44 KEPZ 231700
TAFTCS
TAF
KTCS 231720Z 2318/2418 20011KT P6SM FEW100 SCT250
     FM232100 22017G27KT P6SM BKN100
     FM240000 24015G25KT P6SM VCTS SCT100CB SCT250
     FM240400 25008KT P6SM SCT150
     FM241600 21010KT P6SM FEW080=



000
FTUS44 KEPZ 231700
TAFTCS
TAF
KTCS 231720Z 2318/2418 20011KT P6SM FEW100 SCT250
     FM232100 22017G27KT P6SM BKN100
     FM240000 24015G25KT P6SM VCTS SCT100CB SCT250
     FM240400 25008KT P6SM SCT150
     FM241600 21010KT P6SM FEW080=



000
FTUS44 KEPZ 231700
TAFELP
TAF
KELP 231720Z 2318/2418 22007KT P6SM FEW100 BKN250
     FM232100 24012G20KT P6SM SCT090 BKN250
     FM240500 27012G25KT P6SM FEW080 SCT250
     FM240900 27011KT P6SM FEW050
     FM241600 27015G25KT P6SM FEW070=



000
FTUS44 KEPZ 231700
TAFDMN
TAF
KDMN 231720Z 2318/2418 24011KT P6SM BKN090
     FM232000 25018G28KT P6SM BKN100
     FM240200 26010KT P6SM SCT150
     FM241500 26014G24KT P6SM FEW080=



000
FTUS44 KEPZ 231700
TAFELP
TAF
KELP 231720Z 2318/2418 22007KT P6SM FEW100 BKN250
     FM232100 24012G20KT P6SM SCT090 BKN250
     FM240500 27012G25KT P6SM FEW080 SCT250
     FM240900 27011KT P6SM FEW050
     FM241600 27015G25KT P6SM FEW070=



000
FTUS44 KEPZ 231700
TAFDMN
TAF
KDMN 231720Z 2318/2418 24011KT P6SM BKN090
     FM232000 25018G28KT P6SM BKN100
     FM240200 26010KT P6SM SCT150
     FM241500 26014G24KT P6SM FEW080=



000
FTUS44 KEPZ 231100
TAFTCS
TAF
KTCS 231128Z 2312/2412 27007KT P6SM SCT250
     FM231800 21015G25KT P6SM FEW120
     FM240000 24011G18KT P6SM SCT100 SCT150
     FM240500 25008KT P6SM FEW070 BKN120=



000
FTUS44 KEPZ 231100
TAFELP
TAF
KELP 231128Z 2312/2412 27007KT P6SM BKN250
     FM231900 24013G24KT P6SM SCT250
     FM240300 26012G26KT P6SM FEW100 BKN150
     FM240900 27010G17KT P6SM FEW080 BKN120=



000
FTUS44 KEPZ 231100
TAFDMN
TAF
KDMN 231128Z 2312/2412 32006KT P6SM SCT250
     FM231800 24015G25KT P6SM FEW150 SCT250
     FM240200 26010G17KT P6SM SCT080 BKN150
     FM240800 26008KT P6SM FEW080 BKN120=



000
FTUS44 KEPZ 230500
TAFELP
TAF
KELP 230539Z 2306/2406 26011KT P6SM BKN250
     FM231200 28006KT P6SM SCT250
     FM231900 24013G23KT P6SM SCT250=



000
FTUS44 KEPZ 230500
TAFDMN
TAF
KDMN 230539Z 2306/2406 25008KT P6SM SKC
     FM231800 24015G25KT P6SM FEW250
     FM240500 26008KT P6SM FEW250=



000
FTUS44 KEPZ 230500
TAFTCS
TAF
KTCS 230539Z 2306/2406 28008KT P6SM SKC
     FM231800 21015G25KT P6SM FEW120
     FM240300 24010KT P6SM FEW250=



000
FTUS44 KEPZ 222300 RRA
TAFDMN
TAF
KDMN 222347Z 2300/2324 25015G25KT P6SM SKC
     FM230300 26008KT P6SM SKC
     FM231600 25012KT P6SM FEW250
     FM231800 25015G25KT P6SM FEW250=



000
FTUS44 KEPZ 222300 RRA
TAFTCS
TAF
KTCS 222347Z 2300/2324 20017G25KT P6SM SKC
     FM230300 24008KT P6SM SKC
     FM231600 18009KT P6SM FEW120
     FM232100 21015G25KT P6SM FEW250=



000
FTUS44 KEPZ 222300 RRA
TAFELP
TAF
KELP 222347Z 2300/2324 25012G22KT P6SM FEW250
     FM230300 26010KT P6SM SCT250
     FM232000 26015G25KT P6SM SCT250=



000
FTUS44 KEPZ 222300 RRA
TAFDMN
TAF
KDMN 222347Z 2300/2324 25015G25KT P6SM SKC
     FM230300 26008KT P6SM SKC
     FM231600 25012KT P6SM FEW250
     FM231800 25015G25KT P6SM FEW250=



000
FTUS44 KEPZ 222300 RRA
TAFTCS
TAF
KTCS 222347Z 2300/2324 20017G25KT P6SM SKC
     FM230300 24008KT P6SM SKC
     FM231600 18009KT P6SM FEW120
     FM232100 21015G25KT P6SM FEW250=



000
FTUS44 KEPZ 222300 RRA
TAFELP
TAF
KELP 222347Z 2300/2324 25012G22KT P6SM FEW250
     FM230300 26010KT P6SM SCT250
     FM232000 26015G25KT P6SM SCT250=



000
FTUS44 KEPZ 221700
TAFTCS
TAF
KTCS 221723Z 2218/2318 21008KT P6SM SKC
     FM222000 20017G25KT P6SM SKC
     FM230300 24008KT P6SM SKC
     FM231600 18009KT P6SM FEW120=



000
FTUS44 KEPZ 221700
TAFELP
TAF
KELP 221723Z 2218/2318 25015G25KT P6SM FEW250
     FM230300 26010KT P6SM SCT250=



000
FTUS44 KEPZ 221700
TAFDMN
TAF
KDMN 221723Z 2218/2318 25010G20KT P6SM SKC
     FM221900 25015G25KT P6SM SKC
     FM230300 26008KT P6SM SKC
     FM231600 25012KT P6SM FEW250=



000
FTUS44 KEPZ 221100
TAFELP
TAF
KELP 221133Z 2212/2312 31005KT P6SM FEW150
     FM221800 25015G25KT P6SM SKC
     FM230400 27010KT P6SM SKC=



000
FTUS44 KEPZ 221100
TAFDMN
TAF
KDMN 221133Z 2212/2312 24003KT P6SM SKC
     FM221900 25017G27KT P6SM SKC
     FM230300 26010KT P6SM SKC=



000
FTUS44 KEPZ 221100
TAFTCS
TAF
KTCS 221133Z 2212/2312 21005KT P6SM SKC
     FM221900 21017G25KT P6SM SKC
     FM230500 27008KT P6SM SKC=



    US Dept of Commerce
    National Oceanic and Atmospheric Administration
    National Weather Service
    1325 East West Highway
    Silver Spring, MD 20910
    Page Author: NWS Internet Services Team
Disclaimer
Information Quality
Credits
Glossary
Privacy Policy
Freedom of Information Act (FOIA)
About Us
Career Opportunities